BCS5547 EPWA-EDDP
Flight info
| Callsign | BCS5547 |
|---|---|
| Flight time | N/A |
| Altitude | 30000 |
| Route | LOLSI T174 KORUP Z220 BEBKU T950 LUXBO |
| Aircraft | A306/H-SDE1FGHIRWXYZ/HB1 |
Departure
| Time | 2026-04-30 11:38 |
|---|---|
| Airport | Warsaw Chopin Airport (EPWA) |
Arrival
| Time | N/A |
|---|---|
| Airport | Leipzig/Halle Airport (EDDP) |
| Time | Latitude | Longitude | Altitude | Speed | Heading |
|---|---|---|---|---|---|
| 2026-04-30 11:13 | 52.15469 | 20.98232 | 356 ft | 0 kts | 62° |
| 2026-04-30 11:26 | 52.15472 | 20.98240 | 356 ft | 6 kts | 62° |
| 2026-04-30 11:26 | 52.15473 | 20.98244 | 356 ft | 0 kts | 62° |
| 2026-04-30 11:34 | 52.15472 | 20.98243 | 356 ft | 0 kts | 62° |
| 2026-04-30 11:34 | 52.15470 | 20.98235 | 356 ft | 1 kts | 62° |
| 2026-04-30 11:34 | 52.15468 | 20.98228 | 356 ft | 0 kts | 59° |
| 2026-04-30 11:35 | 52.15478 | 20.98228 | 363 ft | 2 kts | 356° |
| 2026-04-30 11:35 | 52.15496 | 20.98187 | 356 ft | 9 kts | 299° |
| 2026-04-30 11:35 | 52.15544 | 20.98051 | 363 ft | 18 kts | 305° |
| 2026-04-30 11:35 | 52.15668 | 20.98049 | 357 ft | 24 kts | 23° |
| 2026-04-30 11:36 | 52.15826 | 20.98170 | 357 ft | 25 kts | 25° |
| 2026-04-30 11:36 | 52.15980 | 20.98283 | 361 ft | 21 kts | 24° |
| 2026-04-30 11:36 | 52.16005 | 20.98301 | 360 ft | 0 kts | 24° |
| 2026-04-30 11:37 | 52.16034 | 20.98322 | 362 ft | 9 kts | 24° |
| 2026-04-30 11:37 | 52.16104 | 20.98343 | 367 ft | 9 kts | 331° |
| 2026-04-30 11:37 | 52.16179 | 20.98132 | 365 ft | 51 kts | 294° |
| 2026-04-30 11:37 | 52.16429 | 20.97231 | 356 ft | 121 kts | 294° |
| 2026-04-30 11:38 | 52.16864 | 20.95684 | 449 ft | 172 kts | 295° |
| 2026-04-30 11:38 | 52.17381 | 20.93828 | 1245 ft | 188 kts | 296° |
| 2026-04-30 11:38 | 52.17936 | 20.91821 | 2183 ft | 199 kts | 297° |
| 2026-04-30 11:38 | 52.18518 | 20.89810 | 3423 ft | 194 kts | 292° |
| 2026-04-30 11:39 | 52.18829 | 20.87624 | 4489 ft | 206 kts | 280° |
| 2026-04-30 11:39 | 52.18857 | 20.85205 | 5358 ft | 226 kts | 267° |
| 2026-04-30 11:39 | 52.18487 | 20.82590 | 6088 ft | 247 kts | 258° |
| 2026-04-30 11:39 | 52.18000 | 20.79815 | 6837 ft | 258 kts | 257° |
| 2026-04-30 11:40 | 52.17540 | 20.76998 | 7842 ft | 256 kts | 259° |
| 2026-04-30 11:40 | 52.17222 | 20.74160 | 8867 ft | 255 kts | 269° |
| 2026-04-30 11:40 | 52.17195 | 20.71251 | 9731 ft | 259 kts | 278° |
| 2026-04-30 11:40 | 52.17419 | 20.68296 | 10450 ft | 267 kts | 284° |
| 2026-04-30 11:41 | 52.17697 | 20.65245 | 10897 ft | 287 kts | 283° |
| 2026-04-30 11:41 | 52.17952 | 20.61738 | 10704 ft | 332 kts | 281° |
| 2026-04-30 11:41 | 52.18193 | 20.57791 | 10455 ft | 372 kts | 279° |
| 2026-04-30 11:41 | 52.18393 | 20.53585 | 11542 ft | 361 kts | 277° |
| 2026-04-30 11:42 | 52.18436 | 20.49516 | 12647 ft | 363 kts | 272° |
| 2026-04-30 11:42 | 52.18156 | 20.45393 | 13558 ft | 367 kts | 265° |
| 2026-04-30 11:42 | 52.17624 | 20.41313 | 14490 ft | 370 kts | 261° |
| 2026-04-30 11:42 | 52.17054 | 20.37187 | 15091 ft | 377 kts | 263° |
| 2026-04-30 11:43 | 52.16524 | 20.32946 | 15644 ft | 386 kts | 264° |
| 2026-04-30 11:43 | 52.16019 | 20.28612 | 16271 ft | 392 kts | 264° |
| 2026-04-30 11:43 | 52.15538 | 20.24226 | 16986 ft | 395 kts | 265° |
| 2026-04-30 11:43 | 52.15073 | 20.19799 | 17715 ft | 398 kts | 265° |
| 2026-04-30 11:44 | 52.14650 | 20.15366 | 18290 ft | 404 kts | 267° |
| 2026-04-30 11:44 | 52.14316 | 20.10775 | 18770 ft | 412 kts | 269° |
| 2026-04-30 11:44 | 52.14068 | 20.06078 | 19251 ft | 418 kts | 271° |
| 2026-04-30 11:44 | 52.13902 | 20.01345 | 19918 ft | 418 kts | 273° |
| 2026-04-30 11:45 | 52.13810 | 19.96621 | 20689 ft | 416 kts | 275° |
| 2026-04-30 11:45 | 52.13781 | 19.91903 | 21324 ft | 419 kts | 276° |
| 2026-04-30 11:45 | 52.13793 | 19.87115 | 21764 ft | 426 kts | 277° |
| 2026-04-30 11:45 | 52.13841 | 19.82237 | 22149 ft | 435 kts | 277° |
| 2026-04-30 11:46 | 52.13917 | 19.77289 | 22660 ft | 439 kts | 278° |
| 2026-04-30 11:46 | 52.14012 | 19.72323 | 23325 ft | 439 kts | 278° |
| 2026-04-30 11:46 | 52.14121 | 19.67349 | 23988 ft | 440 kts | 279° |
| 2026-04-30 11:46 | 52.14244 | 19.62352 | 24418 ft | 444 kts | 279° |
| 2026-04-30 11:47 | 52.14387 | 19.57354 | 24702 ft | 451 kts | 280° |
| 2026-04-30 11:47 | 52.14565 | 19.52212 | 24994 ft | 457 kts | 281° |
| 2026-04-30 11:47 | 52.14756 | 19.47112 | 25121 ft | 442 kts | 281° |